createdAt,value
2023-05-26T00:00:25.642Z,1248.00
2023-05-26T00:01:26.681Z,1236.00
2023-05-26T00:02:26.779Z,1248.00
2023-05-26T00:03:25.872Z,1216.00
2023-05-26T00:04:26.828Z,1236.00
2023-05-26T00:05:26.821Z,1238.00
2023-05-26T00:06:26.873Z,1238.00
2023-05-26T00:07:26.868Z,1233.00
2023-05-26T00:08:26.897Z,1241.00
2023-05-26T00:09:26.961Z,1222.00
2023-05-26T00:10:25.974Z,1238.00
2023-05-26T00:11:27.018Z,1239.00
2023-05-26T00:12:27.057Z,1239.00
2023-05-26T00:13:27.109Z,1230.00
2023-05-26T00:14:27.126Z,1236.00
2023-05-26T00:15:27.157Z,1228.00
2023-05-26T00:16:27.275Z,1224.00
2023-05-26T00:17:27.245Z,1233.00
2023-05-26T00:18:27.276Z,1231.00
2023-05-26T00:19:27.304Z,1233.00
2023-05-26T00:20:26.424Z,1231.00
2023-05-26T00:21:26.388Z,1222.00
2023-05-26T00:22:26.418Z,1219.00
2023-05-26T00:23:27.452Z,1221.00
2023-05-26T00:24:27.491Z,1228.00
2023-05-26T00:25:26.516Z,1209.00
2023-05-26T00:26:27.569Z,1215.00
2023-05-26T00:27:27.593Z,1225.00
2023-05-26T00:28:26.634Z,1226.00
2023-05-26T00:29:29.533Z,1225.00
2023-05-26T00:30:27.652Z,1217.00
2023-05-26T00:31:26.696Z,1231.00
2023-05-26T00:32:26.697Z,1228.00
2023-05-26T00:33:27.643Z,1224.00
2023-05-26T00:34:27.641Z,1222.00
2023-05-26T00:35:27.636Z,1213.00
2023-05-26T00:36:27.617Z,1216.00
2023-05-26T00:37:27.605Z,1215.00
2023-05-26T00:38:27.600Z,1211.00
2023-05-26T00:39:27.612Z,1216.00
2023-05-26T00:40:27.628Z,1214.00
2023-05-26T00:41:27.604Z,1202.00
2023-05-26T00:42:27.580Z,1204.00
2023-05-26T00:43:27.585Z,1204.00
2023-05-26T00:44:26.585Z,1204.00
2023-05-26T00:45:27.596Z,1203.00
2023-05-26T00:46:27.624Z,1195.00
2023-05-26T00:47:27.590Z,1197.00
2023-05-26T00:48:27.563Z,1198.00
2023-05-26T00:49:27.528Z,1198.00
2023-05-26T00:50:26.515Z,1209.00
2023-05-26T00:51:26.523Z,1187.00
2023-05-26T00:52:27.521Z,1204.00
2023-05-26T00:53:27.503Z,1184.00
2023-05-26T00:54:27.494Z,1202.00
2023-05-26T00:55:27.515Z,1193.00
2023-05-26T00:56:26.486Z,1192.00
2023-05-26T00:57:27.477Z,1197.00
2023-05-26T00:58:27.474Z,1190.00
2023-05-26T00:59:27.470Z,1189.00
2023-05-26T01:00:26.450Z,1183.00
2023-05-26T01:01:27.570Z,1190.00
2023-05-26T01:02:27.477Z,1187.00
2023-05-26T01:03:26.491Z,1182.00
2023-05-26T01:04:26.459Z,1186.00
2023-05-26T01:05:26.517Z,1182.00
2023-05-26T01:06:27.568Z,1178.00
2023-05-26T01:07:27.599Z,1185.00
2023-05-26T01:08:26.634Z,1178.00
2023-05-26T01:09:27.682Z,1175.00
2023-05-26T01:10:26.711Z,1173.00
2023-05-26T01:11:27.874Z,1171.00
2023-05-26T01:12:27.825Z,1177.00
2023-05-26T01:13:26.866Z,1165.00
2023-05-26T01:14:27.912Z,1178.00
2023-05-26T01:15:27.960Z,1172.00
2023-05-26T01:16:28.041Z,1161.00
2023-05-26T01:17:27.069Z,1169.00
2023-05-26T01:18:28.078Z,1167.00
2023-05-26T01:19:27.117Z,1178.00
2023-05-26T01:20:28.203Z,1175.00
2023-05-26T01:21:27.213Z,1168.00
2023-05-26T01:22:28.269Z,1158.00
2023-05-26T01:23:27.304Z,1166.00
2023-05-26T01:24:27.362Z,1161.00
2023-05-26T01:25:28.408Z,1161.00
2023-05-26T01:26:28.466Z,1146.00
2023-05-26T01:27:27.515Z,1158.00
2023-05-26T01:28:27.540Z,1163.00
2023-05-26T01:29:28.605Z,1160.00
2023-05-26T01:30:28.657Z,1151.00
2023-05-26T01:31:27.673Z,1165.00
2023-05-26T01:32:28.747Z,1155.00
2023-05-26T01:33:29.028Z,1149.00
2023-05-26T01:34:28.815Z,1139.00
2023-05-26T01:35:27.834Z,1157.00
2023-05-26T01:36:27.895Z,1152.00
2023-05-26T01:37:27.948Z,1158.00
2023-05-26T01:38:28.997Z,1155.00
2023-05-26T01:39:29.040Z,1146.00
2023-05-26T01:40:29.069Z,1146.00
2023-05-26T01:41:29.164Z,1147.00
2023-05-26T01:42:31.979Z,1152.00
2023-05-26T01:43:28.159Z,1153.00
2023-05-26T01:44:29.172Z,1147.00
2023-05-26T01:45:29.153Z,1137.00
2023-05-26T01:46:29.243Z,1155.00
2023-05-26T01:47:29.157Z,1146.00
2023-05-26T01:48:28.140Z,1145.00
2023-05-26T01:49:29.149Z,1143.00
2023-05-26T01:50:28.120Z,1131.00
2023-05-26T01:51:29.130Z,1147.00
2023-05-26T01:52:28.115Z,1144.00
2023-05-26T01:53:28.119Z,1138.00
2023-05-26T01:54:29.109Z,1138.00
2023-05-26T01:55:29.092Z,1138.00
2023-05-26T01:56:29.079Z,1134.00
2023-05-26T01:57:29.090Z,1139.00
2023-05-26T01:58:28.079Z,1119.00
2023-05-26T01:59:28.055Z,1124.00
2023-05-26T02:00:28.057Z,1133.00
2023-05-26T02:01:29.101Z,1130.00
2023-05-26T02:02:29.147Z,1132.00
2023-05-26T02:03:28.151Z,1128.00
2023-05-26T02:04:29.029Z,1126.00
2023-05-26T02:05:28.051Z,1113.00
2023-05-26T02:06:29.024Z,1121.00
2023-05-26T02:07:29.027Z,1127.00
2023-05-26T02:08:29.007Z,1120.00
2023-05-26T02:09:28.984Z,1111.00
2023-05-26T02:10:29.039Z,1113.00
2023-05-26T02:11:28.072Z,1119.00
2023-05-26T02:12:29.128Z,1124.00
2023-05-26T02:13:29.180Z,1121.00
2023-05-26T02:14:28.224Z,1107.00
2023-05-26T02:15:29.294Z,1128.00
2023-05-26T02:16:28.378Z,1111.00
2023-05-26T02:17:28.428Z,1118.00
2023-05-26T02:18:29.460Z,1099.00
2023-05-26T02:19:28.510Z,1119.00
2023-05-26T02:20:29.606Z,1106.00
2023-05-26T02:21:29.624Z,1112.00
2023-05-26T02:22:28.666Z,1114.00
2023-05-26T02:23:28.709Z,1115.00
2023-05-26T02:24:29.756Z,1121.00
2023-05-26T02:25:28.801Z,1121.00
2023-05-26T02:26:28.825Z,1095.00
2023-05-26T02:27:28.896Z,1098.00
2023-05-26T02:28:29.915Z,1091.00
2023-05-26T02:29:29.964Z,1104.00
2023-05-26T02:30:30.021Z,1099.00
2023-05-26T02:31:30.504Z,1102.00
2023-05-26T02:32:29.106Z,1104.00
2023-05-26T02:33:29.045Z,1104.00
2023-05-26T02:34:29.064Z,1114.00
2023-05-26T02:35:30.038Z,1109.00
2023-05-26T02:36:30.038Z,1109.00
2023-05-26T02:37:30.040Z,1107.00
2023-05-26T02:38:30.011Z,1092.00
2023-05-26T02:39:29.003Z,1113.00
2023-05-26T02:40:28.999Z,1098.00
2023-05-26T02:41:29.993Z,1100.00
2023-05-26T02:42:28.991Z,1081.00
2023-05-26T02:43:29.999Z,1092.00
2023-05-26T02:44:29.962Z,1096.00
2023-05-26T02:45:29.973Z,1091.00
2023-05-26T02:46:29.962Z,1105.00
2023-05-26T02:47:30.006Z,1097.00
2023-05-26T02:48:29.952Z,1095.00
2023-05-26T02:49:29.938Z,1098.00
2023-05-26T02:50:28.938Z,1079.00
2023-05-26T02:51:28.932Z,1093.00
2023-05-26T02:52:29.940Z,1073.00
2023-05-26T02:53:29.935Z,1085.00
2023-05-26T02:54:28.931Z,1093.00
2023-05-26T02:55:28.903Z,1082.00
2023-05-26T02:56:28.904Z,1082.00
2023-05-26T02:57:31.421Z,1082.00
2023-05-26T02:58:30.052Z,1086.00
2023-05-26T02:59:30.114Z,1080.00
2023-05-26T03:00:29.136Z,1083.00
2023-05-26T03:01:30.256Z,1070.00
2023-05-26T03:02:29.281Z,1076.00
2023-05-26T03:03:29.398Z,1073.00
2023-05-26T03:04:29.374Z,1084.00
2023-05-26T03:05:30.407Z,1067.00
2023-05-26T03:06:30.461Z,1070.00
2023-05-26T03:07:29.564Z,1068.00
2023-05-26T03:08:29.565Z,1070.00
2023-05-26T03:09:30.656Z,1066.00
2023-05-26T03:10:30.668Z,1067.00
2023-05-26T03:11:29.699Z,1069.00
2023-05-26T03:12:30.775Z,1061.00
2023-05-26T03:13:30.802Z,1082.00
2023-05-26T03:14:30.839Z,1071.00
2023-05-26T03:15:29.902Z,1064.00
2023-05-26T03:16:31.006Z,1074.00
2023-05-26T03:17:30.042Z,1056.00
2023-05-26T03:18:30.002Z,1077.00
2023-05-26T03:19:31.055Z,1068.00
2023-05-26T03:20:31.186Z,1059.00
2023-05-26T03:21:46.534Z,1052.00
2023-05-26T03:22:39.845Z,1053.00
2023-05-26T03:23:31.148Z,1054.00
2023-05-26T03:24:31.155Z,1058.00
2023-05-26T03:25:30.167Z,1061.00
2023-05-26T03:26:31.134Z,1059.00
2023-05-26T03:27:31.121Z,1067.00
2023-05-26T03:28:31.123Z,1054.00
2023-05-26T03:29:31.101Z,1066.00
2023-05-26T03:30:31.122Z,1064.00
2023-05-26T03:31:31.138Z,1065.00
2023-05-26T03:32:30.134Z,1044.00
2023-05-26T03:33:31.092Z,1045.00
2023-05-26T03:34:31.075Z,1057.00
2023-05-26T03:35:31.062Z,1042.00
2023-05-26T03:36:30.083Z,1050.00
2023-05-26T03:37:30.174Z,1050.00
2023-05-26T03:38:30.069Z,1048.00
2023-05-26T03:39:31.036Z,1043.00
2023-05-26T03:40:31.040Z,1046.00
2023-05-26T03:41:31.077Z,1042.00
2023-05-26T03:42:31.026Z,1047.00
2023-05-26T03:43:31.015Z,1037.00
2023-05-26T03:44:31.038Z,1037.00
2023-05-26T03:45:31.015Z,1033.00
2023-05-26T03:46:31.027Z,1031.00
2023-05-26T03:47:30.995Z,1040.00
2023-05-26T03:48:30.978Z,1047.00
2023-05-26T03:49:30.979Z,1041.00
2023-05-26T03:50:30.969Z,1029.00
2023-05-26T03:51:30.969Z,1034.00
2023-05-26T03:52:29.971Z,1032.00
2023-05-26T03:53:29.988Z,1037.00
2023-05-26T03:54:31.014Z,1032.00
2023-05-26T03:55:31.045Z,1035.00
2023-05-26T03:56:31.134Z,1029.00
2023-05-26T03:57:31.169Z,1036.00
2023-05-26T03:58:30.189Z,1020.00
2023-05-26T03:59:30.215Z,1028.00
2023-05-26T04:00:31.259Z,1023.00
2023-05-26T04:01:30.291Z,1031.00
2023-05-26T04:02:31.429Z,1014.00
2023-05-26T04:03:31.385Z,1018.00
2023-05-26T04:04:31.471Z,1011.00
2023-05-26T04:05:31.487Z,1021.00
2023-05-26T04:06:31.508Z,1016.00
2023-05-26T04:07:31.571Z,1009.00
2023-05-26T04:08:30.580Z,1008.00
2023-05-26T04:09:30.615Z,1014.00
2023-05-26T04:10:31.645Z,1007.00
2023-05-26T04:11:31.680Z,1015.00
2023-05-26T04:12:30.692Z,1012.00
2023-05-26T04:13:30.787Z,1008.00
2023-05-26T04:14:31.769Z,995.00
2023-05-26T04:15:31.824Z,1002.00
2023-05-26T04:16:31.950Z,997.00
2023-05-26T04:17:30.900Z,1006.00
2023-05-26T04:18:31.925Z,995.00
2023-05-26T04:19:30.972Z,1006.00
2023-05-26T04:20:32.062Z,1015.00
2023-05-26T04:21:32.039Z,1000.00
2023-05-26T04:22:31.079Z,1000.00
2023-05-26T04:23:32.136Z,994.00
2023-05-26T04:24:32.166Z,989.00
2023-05-26T04:25:32.190Z,988.00
2023-05-26T04:26:32.229Z,989.00
2023-05-26T04:27:32.248Z,987.00
2023-05-26T04:28:32.335Z,978.00
2023-05-26T04:29:32.364Z,983.00
2023-05-26T04:30:32.399Z,1001.00
2023-05-26T04:31:32.468Z,980.00
2023-05-26T04:32:31.488Z,993.00
2023-05-26T04:33:32.512Z,976.00
2023-05-26T04:34:32.541Z,977.00
2023-05-26T04:35:31.587Z,980.00
2023-05-26T04:36:32.604Z,977.00
2023-05-26T04:37:32.672Z,990.00
2023-05-26T04:38:32.711Z,984.00
2023-05-26T04:39:32.767Z,982.00
2023-05-26T04:40:32.800Z,980.00
2023-05-26T04:41:32.855Z,976.00
2023-05-26T04:42:31.849Z,986.00
2023-05-26T04:43:32.906Z,983.00
2023-05-26T04:44:32.956Z,983.00
2023-05-26T04:45:32.972Z,980.00
2023-05-26T04:46:33.069Z,973.00
2023-05-26T04:47:33.084Z,991.00
2023-05-26T04:48:33.118Z,974.00
2023-05-26T04:49:32.147Z,984.00
2023-05-26T04:50:32.173Z,967.00
2023-05-26T04:51:33.202Z,970.00
2023-05-26T04:52:32.217Z,966.00
2023-05-26T04:53:32.278Z,975.00
2023-05-26T04:54:33.298Z,972.00
2023-05-26T04:55:32.348Z,965.00
2023-05-26T04:56:32.343Z,967.00
2023-05-26T04:57:32.378Z,976.00
2023-05-26T04:58:33.522Z,905.00
2023-05-26T04:59:33.473Z,870.00
2023-05-26T05:00:32.528Z,853.00
2023-05-26T05:01:33.594Z,820.00
2023-05-26T05:02:33.558Z,797.00
2023-05-26T05:03:33.247Z,744.00
2023-05-26T05:04:33.602Z,722.00
2023-05-26T05:05:32.951Z,700.00
2023-05-26T05:06:33.966Z,694.00
2023-05-26T05:07:33.698Z,663.00
2023-05-26T05:08:32.972Z,656.00
2023-05-26T05:09:33.783Z,651.00
2023-05-26T05:10:33.817Z,640.00
2023-05-26T05:11:32.823Z,641.00
2023-05-26T05:12:32.851Z,635.00
2023-05-26T05:13:33.919Z,629.00
2023-05-26T05:14:32.921Z,617.00
2023-05-26T05:15:33.962Z,606.00
2023-05-26T05:16:33.019Z,605.00
2023-05-26T05:17:34.014Z,602.00
2023-05-26T05:18:34.022Z,604.00
2023-05-26T05:19:33.029Z,609.00
2023-05-26T05:20:34.084Z,607.00
2023-05-26T05:21:34.038Z,607.00
2023-05-26T05:22:33.052Z,607.00
2023-05-26T05:23:33.081Z,603.00
2023-05-26T05:24:33.096Z,605.00
2023-05-26T05:25:33.097Z,611.00
2023-05-26T05:26:34.133Z,601.00
2023-05-26T05:27:33.259Z,597.00
2023-05-26T05:28:34.192Z,599.00
2023-05-26T05:29:33.206Z,593.00
2023-05-26T05:30:34.226Z,597.00
2023-05-26T05:31:34.225Z,596.00
2023-05-26T05:32:34.286Z,595.00
2023-05-26T05:33:34.341Z,598.00
2023-05-26T05:34:34.274Z,595.00
2023-05-26T05:35:33.357Z,598.00
2023-05-26T05:36:33.288Z,600.00
2023-05-26T05:37:34.313Z,596.00
2023-05-26T05:38:33.318Z,597.00
2023-05-26T05:39:33.329Z,609.00
2023-05-26T05:40:34.366Z,609.00
2023-05-26T05:41:33.406Z,606.00
2023-05-26T05:42:34.473Z,604.00
2023-05-26T05:43:34.499Z,604.00
2023-05-26T05:44:33.537Z,601.00
2023-05-26T05:45:34.579Z,611.00
2023-05-26T05:46:33.672Z,614.00
2023-05-26T05:47:33.711Z,633.00
2023-05-26T05:48:34.734Z,656.00
2023-05-26T05:49:34.771Z,642.00
2023-05-26T05:50:33.815Z,638.00
2023-05-26T05:51:34.883Z,638.00
2023-05-26T05:52:34.907Z,642.00
2023-05-26T05:53:35.001Z,648.00
2023-05-26T05:54:34.996Z,647.00
2023-05-26T05:55:35.006Z,653.00
2023-05-26T05:56:34.048Z,663.00
2023-05-26T05:57:35.034Z,693.00
2023-05-26T05:58:35.045Z,690.00
2023-05-26T05:59:34.112Z,699.00
2023-05-26T06:00:34.134Z,761.00
2023-05-26T06:01:35.182Z,740.00
2023-05-26T06:02:34.322Z,673.00
2023-05-26T06:03:34.476Z,658.00
2023-05-26T06:04:35.417Z,660.00
2023-05-26T06:05:34.357Z,648.00
2023-05-26T06:06:34.493Z,644.00
2023-05-26T06:07:35.429Z,652.00
2023-05-26T06:08:35.446Z,649.00
2023-05-26T06:09:35.513Z,649.00
2023-05-26T06:10:35.523Z,636.00
2023-05-26T06:11:34.543Z,637.00
2023-05-26T06:12:35.552Z,640.00
2023-05-26T06:13:35.605Z,678.00
2023-05-26T06:14:35.654Z,680.00
2023-05-26T06:15:35.668Z,674.00
2023-05-26T06:16:35.809Z,670.00
2023-05-26T06:17:35.856Z,665.00
2023-05-26T06:18:35.931Z,657.00
2023-05-26T06:19:34.840Z,655.00
2023-05-26T06:20:35.943Z,652.00
2023-05-26T06:21:34.945Z,663.00
2023-05-26T06:22:35.991Z,713.00
2023-05-26T06:23:36.428Z,708.00
2023-05-26T06:24:36.055Z,730.00
2023-05-26T06:25:36.086Z,727.00
2023-05-26T06:26:36.128Z,739.00
2023-05-26T06:27:36.156Z,745.00
2023-05-26T06:28:35.234Z,748.00
2023-05-26T06:29:35.234Z,734.00
2023-05-26T06:30:36.270Z,748.00
2023-05-26T06:31:35.380Z,760.00
2023-05-26T06:32:35.432Z,765.00
2023-05-26T06:33:35.386Z,783.00
2023-05-26T06:34:35.440Z,786.00
2023-05-26T06:35:36.454Z,845.00
2023-05-26T06:36:35.501Z,885.00
2023-05-26T06:37:36.505Z,920.00
2023-05-26T06:38:36.544Z,935.00
2023-05-26T06:39:35.553Z,975.00
2023-05-26T06:40:36.613Z,991.00
2023-05-26T06:41:35.655Z,1002.00
2023-05-26T06:42:36.700Z,1026.00
2023-05-26T06:43:35.755Z,1048.00
2023-05-26T06:44:35.767Z,1063.00
2023-05-26T06:45:36.775Z,1088.00
2023-05-26T06:46:36.812Z,1084.00
2023-05-26T06:47:36.906Z,1102.00
2023-05-26T06:48:35.866Z,1118.00
2023-05-26T06:49:37.387Z,1145.00
2023-05-26T06:50:36.909Z,1121.00
2023-05-26T06:51:35.900Z,1135.00
2023-05-26T06:52:36.982Z,1055.00
2023-05-26T06:53:36.965Z,937.00
2023-05-26T06:54:36.984Z,986.00
2023-05-26T06:55:37.017Z,1028.00
2023-05-26T06:56:37.030Z,1034.00
2023-05-26T06:57:37.051Z,991.00
2023-05-26T06:58:37.052Z,978.00
2023-05-26T06:59:37.091Z,936.00
2023-05-26T07:00:36.176Z,939.00
2023-05-26T07:01:37.228Z,942.00
2023-05-26T07:02:37.265Z,928.00
2023-05-26T07:03:37.260Z,920.00
2023-05-26T07:04:37.330Z,939.00
2023-05-26T07:05:38.065Z,923.00
2023-05-26T07:06:46.571Z,901.00
2023-05-26T07:07:37.454Z,902.00
2023-05-26T07:08:37.424Z,902.00
2023-05-26T07:09:36.430Z,885.00
2023-05-26T07:10:37.398Z,852.00
2023-05-26T07:11:36.377Z,822.00
2023-05-26T07:12:36.397Z,819.00
2023-05-26T07:13:36.381Z,825.00
2023-05-26T07:14:38.582Z,724.00
2023-05-26T07:15:36.390Z,688.00
2023-05-26T07:16:37.520Z,643.00
2023-05-26T07:17:36.466Z,629.00
2023-05-26T07:18:37.520Z,627.00
2023-05-26T07:19:37.525Z,631.00
2023-05-26T07:20:36.684Z,635.00
2023-05-26T07:21:36.634Z,636.00
2023-05-26T07:22:36.689Z,634.00
2023-05-26T07:23:36.713Z,637.00
2023-05-26T07:24:37.780Z,634.00
2023-05-26T07:25:37.816Z,635.00
2023-05-26T07:26:37.877Z,631.00
2023-05-26T07:27:36.948Z,630.00
2023-05-26T07:28:37.976Z,635.00
2023-05-26T07:29:38.012Z,631.00
2023-05-26T07:30:38.072Z,625.00
2023-05-26T07:31:38.170Z,630.00
2023-05-26T07:32:38.213Z,645.00
2023-05-26T07:33:38.303Z,640.00
2023-05-26T07:34:38.261Z,654.00
2023-05-26T07:35:38.260Z,643.00
2023-05-26T07:36:38.259Z,636.00
2023-05-26T07:37:38.263Z,644.00
2023-05-26T07:38:38.327Z,640.00
2023-05-26T07:39:37.298Z,639.00
2023-05-26T07:40:38.303Z,634.00
2023-05-26T07:41:37.319Z,632.00
2023-05-26T07:42:37.332Z,626.00
2023-05-26T07:43:38.361Z,626.00
2023-05-26T07:44:37.354Z,623.00
2023-05-26T07:45:38.436Z,619.00
2023-05-26T07:46:38.531Z,591.00
2023-05-26T07:47:38.457Z,581.00
2023-05-26T07:48:38.440Z,580.00
2023-05-26T07:49:37.927Z,572.00
2023-05-26T07:50:37.534Z,538.00
2023-05-26T07:51:38.560Z,558.00
2023-05-26T07:52:38.593Z,571.00
2023-05-26T07:53:37.590Z,564.00
2023-05-26T07:54:37.945Z,582.00
2023-05-26T07:55:37.601Z,580.00
2023-05-26T07:56:38.621Z,564.00
2023-05-26T07:57:37.651Z,577.00
2023-05-26T07:58:38.707Z,580.00
2023-05-26T07:59:37.710Z,577.00
2023-05-26T08:00:38.770Z,579.00
2023-05-26T08:01:37.749Z,582.00
2023-05-26T08:02:38.902Z,581.00
2023-05-26T08:03:38.900Z,581.00
2023-05-26T08:04:37.841Z,585.00
2023-05-26T08:05:38.984Z,581.00
2023-05-26T08:06:38.007Z,590.00
2023-05-26T08:07:37.983Z,593.00
2023-05-26T08:08:39.021Z,586.00
2023-05-26T08:09:38.087Z,568.00
2023-05-26T08:10:38.154Z,571.00
2023-05-26T08:11:39.112Z,574.00
2023-05-26T08:12:38.119Z,579.00
2023-05-26T08:13:39.178Z,578.00
2023-05-26T08:14:39.283Z,583.00
2023-05-26T08:15:39.314Z,596.00
2023-05-26T08:16:39.456Z,592.00
2023-05-26T08:17:39.397Z,577.00
2023-05-26T08:18:39.404Z,575.00
2023-05-26T08:19:38.464Z,587.00
2023-05-26T08:20:39.559Z,591.00
2023-05-26T08:21:39.522Z,581.00
2023-05-26T08:22:39.560Z,578.00
2023-05-26T08:23:39.605Z,567.00
2023-05-26T08:24:39.636Z,573.00
2023-05-26T08:25:39.695Z,588.00
2023-05-26T08:26:39.714Z,580.00
2023-05-26T08:27:39.730Z,595.00
2023-05-26T08:28:39.773Z,576.00
2023-05-26T08:29:39.781Z,586.00
2023-05-26T08:30:39.798Z,594.00
2023-05-26T08:31:39.867Z,603.00
2023-05-26T08:32:39.009Z,595.00
2023-05-26T08:33:38.835Z,598.00
2023-05-26T08:34:39.862Z,598.00
2023-05-26T08:35:39.859Z,602.00
2023-05-26T08:36:39.883Z,605.00
2023-05-26T08:37:38.896Z,613.00
2023-05-26T08:38:39.908Z,605.00
2023-05-26T08:39:39.933Z,608.00
2023-05-26T08:40:39.927Z,612.00
2023-05-26T08:41:39.132Z,619.00
2023-05-26T08:42:38.973Z,621.00
2023-05-26T08:43:46.517Z,611.00
2023-05-26T08:44:40.470Z,612.00
2023-05-26T08:45:39.972Z,611.00
2023-05-26T08:46:39.966Z,607.00
2023-05-26T08:47:39.042Z,596.00
2023-05-26T08:48:39.937Z,566.00
2023-05-26T08:49:39.972Z,552.00
2023-05-26T08:50:38.933Z,521.00
2023-05-26T08:51:39.942Z,497.00
2023-05-26T08:52:38.920Z,504.00
2023-05-26T08:53:38.897Z,500.00
2023-05-26T08:54:39.933Z,490.00
2023-05-26T08:55:39.940Z,500.00
2023-05-26T08:56:39.914Z,520.00
2023-05-26T08:57:39.927Z,505.00
2023-05-26T08:58:38.889Z,498.00
2023-05-26T08:59:38.946Z,498.00
2023-05-26T09:00:38.863Z,500.00
2023-05-26T09:01:39.980Z,510.00
2023-05-26T09:02:39.885Z,500.00
2023-05-26T09:03:39.879Z,516.00
2023-05-26T09:04:38.843Z,503.00
2023-05-26T09:05:39.821Z,488.00
2023-05-26T09:06:38.805Z,500.00
2023-05-26T09:07:39.812Z,502.00
2023-05-26T09:08:39.831Z,500.00
2023-05-26T09:09:38.800Z,500.00
2023-05-26T09:10:38.806Z,543.00
2023-05-26T09:11:41.688Z,555.00
2023-05-26T09:12:38.790Z,551.00
2023-05-26T09:13:38.778Z,524.00
2023-05-26T09:14:39.779Z,533.00
2023-05-26T09:15:38.779Z,522.00
2023-05-26T09:16:39.810Z,507.00
2023-05-26T09:17:39.851Z,528.00
2023-05-26T09:18:39.734Z,536.00
2023-05-26T09:19:38.762Z,553.00
2023-05-26T09:20:38.798Z,533.00
2023-05-26T09:21:39.733Z,499.00
2023-05-26T09:22:38.695Z,487.00
2023-05-26T09:23:38.710Z,502.00
2023-05-26T09:24:38.702Z,499.00
2023-05-26T09:25:38.740Z,500.00
2023-05-26T09:26:39.684Z,502.00
2023-05-26T09:27:39.692Z,496.00
2023-05-26T09:28:38.697Z,525.00
2023-05-26T09:29:38.783Z,569.00
2023-05-26T09:30:39.683Z,550.00
2023-05-26T09:31:39.694Z,585.00
2023-05-26T09:32:38.683Z,599.00
2023-05-26T09:33:39.686Z,591.00
2023-05-26T09:34:38.655Z,606.00
2023-05-26T09:35:38.646Z,616.00
2023-05-26T09:36:39.630Z,637.00
2023-05-26T09:37:39.608Z,656.00
2023-05-26T09:38:39.628Z,687.00
2023-05-26T09:39:39.624Z,766.00
2023-05-26T09:40:39.618Z,825.00
2023-05-26T09:41:39.616Z,803.00
2023-05-26T09:42:39.610Z,823.00
2023-05-26T09:43:39.578Z,782.00
2023-05-26T09:44:39.588Z,700.00
2023-05-26T09:45:39.724Z,638.00
2023-05-26T09:46:38.586Z,609.00
2023-05-26T09:47:38.581Z,611.00
2023-05-26T09:48:39.552Z,663.00
2023-05-26T09:49:39.987Z,642.00
2023-05-26T09:50:39.541Z,615.00
2023-05-26T09:51:39.528Z,593.00
2023-05-26T09:52:39.532Z,558.00
2023-05-26T09:53:39.522Z,542.00
2023-05-26T09:54:39.562Z,496.00
2023-05-26T09:55:39.509Z,503.00
2023-05-26T09:56:38.518Z,560.00
2023-05-26T09:57:38.515Z,578.00
2023-05-26T09:58:39.479Z,621.00
2023-05-26T09:59:38.531Z,591.00
2023-05-26T10:00:39.520Z,566.00
2023-05-26T10:01:38.614Z,539.00
2023-05-26T10:02:39.653Z,527.00
2023-05-26T10:03:39.623Z,501.00
2023-05-26T10:04:39.649Z,495.00
2023-05-26T10:05:39.689Z,497.00
2023-05-26T10:06:39.709Z,505.00
2023-05-26T10:07:39.684Z,509.00
2023-05-26T10:08:39.711Z,504.00
2023-05-26T10:09:39.717Z,521.00
2023-05-26T10:10:39.710Z,518.00
2023-05-26T10:11:39.752Z,512.00
2023-05-26T10:12:39.751Z,520.00
2023-05-26T10:13:38.748Z,514.00
2023-05-26T10:14:39.782Z,531.00
2023-05-26T10:15:39.777Z,562.00
2023-05-26T10:16:39.864Z,582.00
2023-05-26T10:17:39.954Z,561.00
2023-05-26T10:18:39.910Z,557.00
2023-05-26T10:19:39.995Z,579.00
2023-05-26T10:20:40.043Z,558.00
2023-05-26T10:21:40.040Z,566.00
2023-05-26T10:22:40.185Z,575.00
2023-05-26T10:23:40.121Z,558.00
2023-05-26T10:24:40.184Z,537.00
2023-05-26T10:25:39.203Z,527.00
2023-05-26T10:26:39.241Z,502.00
2023-05-26T10:27:40.270Z,500.00
2023-05-26T10:28:40.277Z,504.00
2023-05-26T10:29:40.293Z,502.00
2023-05-26T10:30:40.321Z,511.00
2023-05-26T10:31:40.448Z,508.00
2023-05-26T10:32:40.417Z,498.00
2023-05-26T10:33:40.471Z,509.00
2023-05-26T10:34:41.808Z,511.00
2023-05-26T10:35:40.515Z,512.00
2023-05-26T10:36:40.469Z,513.00
2023-05-26T10:37:40.455Z,517.00
2023-05-26T10:38:39.456Z,514.00
2023-05-26T10:39:40.443Z,518.00
2023-05-26T10:40:40.547Z,529.00
2023-05-26T10:41:40.481Z,544.00
2023-05-26T10:42:40.462Z,524.00
2023-05-26T10:43:39.450Z,534.00
2023-05-26T10:44:39.453Z,555.00
2023-05-26T10:45:40.444Z,562.00
2023-05-26T10:46:40.637Z,556.00
2023-05-26T10:47:39.450Z,505.00
2023-05-26T10:48:39.422Z,509.00
2023-05-26T10:49:39.437Z,579.00
2023-05-26T10:50:39.397Z,605.00
2023-05-26T10:51:39.405Z,605.00
2023-05-26T10:52:39.360Z,594.00
2023-05-26T10:53:40.361Z,613.00
2023-05-26T10:54:40.372Z,614.00
2023-05-26T10:55:39.444Z,699.00
2023-05-26T10:56:39.450Z,666.00
2023-05-26T10:57:40.491Z,648.00
2023-05-26T10:58:40.541Z,643.00
2023-05-26T10:59:39.600Z,633.00
2023-05-26T11:00:39.689Z,703.00
2023-05-26T11:01:40.658Z,634.00
2023-05-26T11:02:39.774Z,641.00
2023-05-26T11:03:40.875Z,590.00
2023-05-26T11:04:40.729Z,544.00
2023-05-26T11:05:40.779Z,568.00
2023-05-26T11:06:40.775Z,590.00
2023-05-26T11:07:40.747Z,611.00
2023-05-26T11:08:40.842Z,650.00
2023-05-26T11:09:40.887Z,653.00
2023-05-26T11:10:40.897Z,660.00
2023-05-26T11:11:40.950Z,625.00
2023-05-26T11:12:40.964Z,613.00
2023-05-26T11:13:41.130Z,596.00
2023-05-26T11:14:41.074Z,614.00
2023-05-26T11:15:40.109Z,656.00
2023-05-26T11:16:41.212Z,657.00
2023-05-26T11:17:41.242Z,639.00
2023-05-26T11:18:41.252Z,632.00
2023-05-26T11:19:40.234Z,587.00
2023-05-26T11:20:41.431Z,575.00
2023-05-26T11:21:41.322Z,549.00
2023-05-26T11:22:41.360Z,527.00
2023-05-26T11:23:41.371Z,514.00
2023-05-26T11:24:40.438Z,500.00
2023-05-26T11:25:41.479Z,520.00
2023-05-26T11:26:40.474Z,502.00
2023-05-26T11:27:41.491Z,499.00
2023-05-26T11:28:41.652Z,508.00
2023-05-26T11:29:40.604Z,501.00
2023-05-26T11:30:41.617Z,491.00
2023-05-26T11:31:42.554Z,536.00
2023-05-26T11:32:41.686Z,514.00
2023-05-26T11:33:40.744Z,503.00
2023-05-26T11:34:41.792Z,519.00
2023-05-26T11:35:41.788Z,531.00
2023-05-26T11:36:40.830Z,515.00
2023-05-26T11:37:41.914Z,544.00
2023-05-26T11:38:41.876Z,552.00
2023-05-26T11:39:41.919Z,539.00
2023-05-26T11:40:41.987Z,578.00
2023-05-26T11:41:42.036Z,566.00
2023-05-26T11:42:42.035Z,645.00
2023-05-26T11:43:42.044Z,661.00
2023-05-26T11:44:42.100Z,638.00
2023-05-26T11:45:41.074Z,649.00
2023-05-26T11:46:42.077Z,735.00
2023-05-26T11:47:42.112Z,780.00
2023-05-26T11:48:41.125Z,712.00
2023-05-26T11:49:42.176Z,868.00
2023-05-26T11:50:41.159Z,768.00
2023-05-26T11:51:42.179Z,710.00
2023-05-26T11:52:41.170Z,656.00
2023-05-26T11:53:42.220Z,643.00
2023-05-26T11:54:42.209Z,589.00
2023-05-26T11:55:42.211Z,571.00
2023-05-26T11:56:42.251Z,562.00
2023-05-26T11:57:42.310Z,532.00
2023-05-26T11:58:42.327Z,536.00
2023-05-26T11:59:42.408Z,535.00
2023-05-26T12:00:42.421Z,515.00
2023-05-26T12:01:41.467Z,514.00
2023-05-26T12:02:41.635Z,505.00
2023-05-26T12:03:41.481Z,568.00
2023-05-26T12:04:41.496Z,562.00
2023-05-26T12:05:42.526Z,594.00
2023-05-26T12:06:42.525Z,627.00
2023-05-26T12:07:42.530Z,600.00
2023-05-26T12:08:42.554Z,557.00
2023-05-26T12:09:42.607Z,570.00
2023-05-26T12:10:42.624Z,585.00
2023-05-26T12:11:42.599Z,750.00
2023-05-26T12:12:41.656Z,761.00
2023-05-26T12:13:42.678Z,674.00
2023-05-26T12:14:42.773Z,653.00
2023-05-26T12:15:42.801Z,658.00
2023-05-26T12:16:42.926Z,638.00
2023-05-26T12:17:41.864Z,592.00
2023-05-26T12:18:42.901Z,608.00
2023-05-26T12:19:41.921Z,609.00